WetterOnline ( http://www.wetteronline.de )

Wetter aktuell Donau-Ries

Aktuelles Wetter: Harburg (503m)

6-stündlich | Neueste Meldungen
Ortszeit Temperatur Wetter
Di, 19.02. 7:00 1.4° C wolkig
Di, 19.02. 1:00 1.7° C leicht bewölkt
Mo, 18.02. 19:00 8.6° C wolkenlos
Mo, 18.02. 13:00 8.6° C wolkenlos
Mo, 18.02. 7:00 -1.7° C wolkenlos
Mo, 18.02. 1:00 2.3° C wolkenlos
So, 17.02. 19:00 8.6° C wolkig
So, 17.02. 13:00 7.9° C leicht bewölkt
Ortszeit Temperatur Wetter
Di, 19.02. 7:10 1.5° C wolkig
Di, 19.02. 7:00 1.4° C wolkig
Di, 19.02. 6:50 1.4° C wolkig
Di, 19.02. 6:40 0.9° C wolkig
Di, 19.02. 6:30 0.5° C wolkig
Di, 19.02. 6:20 0.5° C wolkig
Di, 19.02. 6:00 -0.1° C wolkenlos
Di, 19.02. 5:30 -0.5° C fast wolkenlos
Di, 19.02. 5:00 -1.4° C wolkig
Di, 19.02. 4:30 -1.2° C wolkig
Ortszeit Relative Feuchte Sichtweite
Di, 19.02. 7:00 78% 11 km
Di, 19.02. 1:00 77% 15 km
Mo, 18.02. 19:00 49% 30 km
Mo, 18.02. 13:00 52% -
Mo, 18.02. 7:00 94% 6 km
Mo, 18.02. 1:00 87% 10 km
So, 17.02. 19:00 56% 30 km
So, 17.02. 13:00 58% 15 km
Ortszeit Relative Feuchte Sichtweite
Di, 19.02. 7:10 77% -
Di, 19.02. 7:00 78% 11 km
Di, 19.02. 6:50 78% -
Di, 19.02. 6:40 80% -
Di, 19.02. 6:30 81% 10 km
Di, 19.02. 6:20 81% -
Di, 19.02. 6:00 83% 9 km
Di, 19.02. 5:30 86% 9 km
Di, 19.02. 5:00 89% 7 km
Di, 19.02. 4:30 88% 7 km
Ortszeit Niederschlagsmenge Niederschlagsart
Di, 19.02. 7:00 0.0 l/m2 in 12 Std. -
Di, 19.02. 1:00 0.0 l/m2 in 6 Std. -
Mo, 18.02. 19:00 0.0 l/m2 in 12 Std. -
Mo, 18.02. 13:00 0.0 l/m2 in 6 Std. -
Mo, 18.02. 7:00 0.0 l/m2 in 12 Std. -
Mo, 18.02. 1:00 0.0 l/m2 in 6 Std. -
So, 17.02. 19:00 0.0 l/m2 in 12 Std. -
So, 17.02. 13:00 0.0 l/m2 in 6 Std. -
Ortszeit Niederschlagsmenge Niederschlagsart
Di, 19.02. 7:10 keine Meldung -
Di, 19.02. 7:00 0.0 l/m2 in 1 Std. -
Di, 19.02. 6:50 keine Meldung -
Di, 19.02. 6:40 keine Meldung -
Di, 19.02. 6:30 0.0 l/m2 in 1 Std. -
Di, 19.02. 6:20 keine Meldung -
Di, 19.02. 6:00 0.0 l/m2 in 1 Std. -
Di, 19.02. 5:30 0.0 l/m2 in 1 Std. -
Di, 19.02. 5:00 0.0 l/m2 in 1 Std. -
Di, 19.02. 4:30 0.0 l/m2 in 1 Std. -
Ortszeit Stärke Spitze Richtung
km/h Bft. km/h Grad Sektor
Di, 19.02. 7:00 11 2 18 190° S
Di, 19.02. 1:00 7 2 14 160° S
Mo, 18.02. 19:00 4 1 14 150° SO
Mo, 18.02. 13:00 7 2 14 150° SO
Mo, 18.02. 7:00 7 2 18 110° O
Mo, 18.02. 1:00 7 2 14 140° SO
So, 17.02. 19:00 11 2 18 120° SO
So, 17.02. 13:00 15 3 20 160° S
Ortszeit Stärke Spitze Richtung
km/h Bft. km/h Grad Sektor
Di, 19.02. 7:10 13 3 - 190° S
Di, 19.02. 7:00 11 2 18 190° S
Di, 19.02. 6:50 11 2 - 190° S
Di, 19.02. 6:40 7 2 - 180° S
Di, 19.02. 6:30 11 2 18 170° S
Di, 19.02. 6:20 11 2 - 170° S
Di, 19.02. 6:00 9 2 15 160° S
Di, 19.02. 5:30 9 2 13 150° SO
Di, 19.02. 5:00 13 3 19 170° S
Di, 19.02. 4:30 7 2 11 140° SO
Ortszeit Untergrenze Bedeckung Gattung
total tief tief mittel hoch
Di, 19.02. 7:00 9000 m 8/8 0/8 - - -
Di, 19.02. 1:00 9000 m 6/8 0/8 - - -
Mo, 18.02. 19:00 - 0/8 0/8 - - -
Mo, 18.02. 13:00 - 0/8 0/8 - - -
Mo, 18.02. 7:00 - 0/8 0/8 - - -
Mo, 18.02. 1:00 - 0/8 0/8 - - -
So, 17.02. 19:00 10500 m 8/8 0/8 - - -
So, 17.02. 13:00 10500 m 8/8 0/8 - - -
Ortszeit Bedeckungsgrad in Achtel und Wolkenuntergrenze
Di, 19.02. 7:10 8(9000m)
Di, 19.02. 7:00 8(9000m)
Di, 19.02. 6:50 8(9000m)
Di, 19.02. 6:40 8(9000m)
Di, 19.02. 6:30 7(9000m)
Di, 19.02. 6:20 7(9000m)
Di, 19.02. 6:00 4(9000m)
Di, 19.02. 5:30 1(9000m)
Di, 19.02. 5:00 5(9000m) 8(10500m)
Di, 19.02. 4:30 8(10500m)
Ortszeit Luftdruck NN (hPa) Tendenz (hPa in 3 Std.)
Di, 19.02. 7:00 1022 + 0,8
Di, 19.02. 1:00 1021 + 0,1
Mo, 18.02. 19:00 1020 - 0,4
Mo, 18.02. 13:00 1022 - 1,2
Mo, 18.02. 7:00 1026 - 0,1
Mo, 18.02. 1:00 1026 - 0,3
So, 17.02. 19:00 1025 - 0,4
So, 17.02. 13:00 1027 - 0,8
Ortszeit Luftdruck NN (hPa) Tendenz (hPa in 3 Std.)
Di, 19.02. 7:10 1022 keine Meldung
Di, 19.02. 7:00 1022 + 0,8
Di, 19.02. 6:50 1022 keine Meldung
Di, 19.02. 6:40 1022 keine Meldung
Di, 19.02. 6:30 1022 + 0,6
Di, 19.02. 6:20 1022 keine Meldung
Di, 19.02. 6:00 1022 + 0,5
Di, 19.02. 5:30 1022 + 0,4
Di, 19.02. 5:00 1022 + 0,4
Di, 19.02. 4:30 1022 + 0,1
Ortszeit Schneehöhe (cm)
Di, 19.02. 7:00 0
Di, 19.02. 1:00 0
Mo, 18.02. 19:00 0
Mo, 18.02. 13:00 0
Mo, 18.02. 7:00 0
Mo, 18.02. 1:00 0
So, 17.02. 19:00 0
So, 17.02. 13:00 0
Ortszeit Schneehöhe (cm)
Di, 19.02. 7:10 0
Di, 19.02. 7:00 0
Di, 19.02. 6:50 0
Di, 19.02. 6:40 0
Di, 19.02. 6:30 0
Di, 19.02. 6:20 0
Di, 19.02. 6:00 0
Di, 19.02. 5:30 0
Di, 19.02. 5:00 0
Di, 19.02. 4:30 0
Link zu dieser Seite / Seite empfehlen

Das Wetter in ...